sensor_id;sensor_type;location;lat;lon;timestamp;P1;durP1;ratioP1;P2;durP2;ratioP2
25980;SDS011;13772;52.996;9.124;2024-03-29T08:51:25;1.85;;;0.60;;
25980;SDS011;13772;52.996;9.124;2024-03-29T08:53:50;1.95;;;0.70;;
25980;SDS011;13772;52.996;9.124;2024-03-29T08:56:15;2.38;;;0.70;;
25980;SDS011;13772;52.996;9.124;2024-03-29T08:58:40;1.92;;;0.80;;
25980;SDS011;13772;52.996;9.124;2024-03-29T09:01:06;3.90;;;1.02;;
25980;SDS011;13772;52.996;9.124;2024-03-29T09:03:31;2.92;;;0.75;;
25980;SDS011;13772;52.996;9.124;2024-03-29T09:05:56;2.22;;;0.77;;
25980;SDS011;13772;52.996;9.124;2024-03-29T09:08:22;2.63;;;0.70;;
25980;SDS011;13772;52.996;9.124;2024-03-29T09:10:47;2.17;;;0.60;;
25980;SDS011;13772;52.996;9.124;2024-03-29T09:13:12;3.03;;;0.85;;
25980;SDS011;13772;52.996;9.124;2024-03-29T09:15:37;3.75;;;0.77;;
25980;SDS011;13772;52.996;9.124;2024-03-29T09:18:03;2.13;;;0.90;;
25980;SDS011;13772;52.996;9.124;2024-03-29T09:20:35;2.28;;;0.75;;
25980;SDS011;13772;52.996;9.124;2024-03-29T09:23:01;3.70;;;0.80;;
25980;SDS011;13772;52.996;9.124;2024-03-29T09:25:26;2.28;;;0.80;;
25980;SDS011;13772;52.996;9.124;2024-03-29T09:27:51;1.92;;;0.50;;
25980;SDS011;13772;52.996;9.124;2024-03-29T09:30:16;2.55;;;0.70;;
25980;SDS011;13772;52.996;9.124;2024-03-29T09:32:43;1.25;;;0.63;;
25980;SDS011;13772;52.996;9.124;2024-03-29T09:35:09;3.63;;;0.80;;
25980;SDS011;13772;52.996;9.124;2024-03-29T09:37:34;2.38;;;0.80;;
25980;SDS011;13772;52.996;9.124;2024-03-29T09:40:02;2.42;;;0.60;;
25980;SDS011;13772;52.996;9.124;2024-03-29T09:42:27;2.95;;;0.88;;
25980;SDS011;13772;52.996;9.124;2024-03-29T09:44:55;4.13;;;1.05;;
25980;SDS011;13772;52.996;9.124;2024-03-29T09:47:22;3.42;;;0.95;;
25980;SDS011;13772;52.996;9.124;2024-03-29T09:49:47;2.00;;;0.65;;
25980;SDS011;13772;52.996;9.124;2024-03-29T09:52:15;3.05;;;0.80;;
25980;SDS011;13772;52.996;9.124;2024-03-29T09:54:40;3.15;;;0.80;;
25980;SDS011;13772;52.996;9.124;2024-03-29T09:57:06;3.83;;;0.85;;
25980;SDS011;13772;52.996;9.124;2024-03-29T09:59:31;2.65;;;0.60;;
25980;SDS011;13772;52.996;9.124;2024-03-29T10:01:59;4.72;;;1.00;;
25980;SDS011;13772;52.996;9.124;2024-03-29T10:04:25;3.70;;;0.82;;
25980;SDS011;13772;52.996;9.124;2024-03-29T10:06:51;2.97;;;1.10;;
25980;SDS011;13772;52.996;9.124;2024-03-29T10:09:17;2.97;;;0.80;;
25980;SDS011;13772;52.996;9.124;2024-03-29T10:11:42;6.25;;;0.90;;
25980;SDS011;13772;52.996;9.124;2024-03-29T10:14:08;1.75;;;0.70;;
25980;SDS011;13772;52.996;9.124;2024-03-29T10:16:33;3.55;;;0.80;;
25980;SDS011;13772;52.996;9.124;2024-03-29T10:18:58;2.63;;;1.02;;
25980;SDS011;13772;52.996;9.124;2024-03-29T10:21:24;3.08;;;1.10;;
25980;SDS011;13772;52.996;9.124;2024-03-29T10:23:50;2.85;;;0.90;;
25980;SDS011;13772;52.996;9.124;2024-03-29T10:26:16;1.75;;;0.63;;
25980;SDS011;13772;52.996;9.124;2024-03-29T10:28:41;2.50;;;0.80;;
25980;SDS011;13772;52.996;9.124;2024-03-29T10:31:08;3.08;;;0.88;;
25980;SDS011;13772;52.996;9.124;2024-03-29T10:33:33;2.70;;;0.88;;
25980;SDS011;13772;52.996;9.124;2024-03-29T10:35:59;2.53;;;0.90;;
25980;SDS011;13772;52.996;9.124;2024-03-29T10:38:25;2.78;;;0.80;;
25980;SDS011;13772;52.996;9.124;2024-03-29T10:40:51;2.90;;;1.00;;
25980;SDS011;13772;52.996;9.124;2024-03-29T10:43:16;2.85;;;0.90;;
25980;SDS011;13772;52.996;9.124;2024-03-29T10:45:42;2.30;;;0.73;;
25980;SDS011;13772;52.996;9.124;2024-03-29T10:48:08;3.38;;;0.82;;
25980;SDS011;13772;52.996;9.124;2024-03-29T10:50:35;3.42;;;0.80;;
25980;SDS011;13772;52.996;9.124;2024-03-29T10:53:00;1.75;;;0.88;;
25980;SDS011;13772;52.996;9.124;2024-03-29T10:55:28;2.75;;;0.90;;
25980;SDS011;13772;52.996;9.124;2024-03-29T10:57:54;6.30;;;1.10;;
25980;SDS011;13772;52.996;9.124;2024-03-29T11:00:21;3.20;;;1.00;;
25980;SDS011;13772;52.996;9.124;2024-03-29T11:05:45;2.20;;;0.90;;
25980;SDS011;13772;52.996;9.124;2024-03-29T11:08:11;4.35;;;1.00;;
25980;SDS011;13772;52.996;9.124;2024-03-29T11:10:42;2.58;;;0.90;;
25980;SDS011;13772;52.996;9.124;2024-03-29T11:13:25;2.67;;;0.80;;
25980;SDS011;13772;52.996;9.124;2024-03-29T11:15:51;4.30;;;1.00;;
25980;SDS011;13772;52.996;9.124;2024-03-29T11:18:17;3.97;;;0.85;;
25980;SDS011;13772;52.996;9.124;2024-03-29T11:20:44;2.60;;;0.90;;
25980;SDS011;13772;52.996;9.124;2024-03-29T11:23:12;5.80;;;1.48;;
25980;SDS011;13772;52.996;9.124;2024-03-29T11:25:40;4.70;;;1.25;;
25980;SDS011;13772;52.996;9.124;2024-03-29T11:28:08;2.85;;;0.88;;
25980;SDS011;13772;52.996;9.124;2024-03-29T11:30:41;3.28;;;0.90;;
25980;SDS011;13772;52.996;9.124;2024-03-29T11:33:07;3.13;;;1.00;;
25980;SDS011;13772;52.996;9.124;2024-03-29T11:35:32;2.47;;;0.80;;
25980;SDS011;13772;52.996;9.124;2024-03-29T11:38:01;2.38;;;0.80;;
25980;SDS011;13772;52.996;9.124;2024-03-29T11:40:29;2.60;;;0.98;;
25980;SDS011;13772;52.996;9.124;2024-03-29T11:42:55;4.07;;;0.95;;
25980;SDS011;13772;52.996;9.124;2024-03-29T11:45:20;1.75;;;0.90;;
25980;SDS011;13772;52.996;9.124;2024-03-29T11:47:46;1.98;;;0.80;;
25980;SDS011;13772;52.996;9.124;2024-03-29T11:50:12;2.17;;;0.93;;
25980;SDS011;13772;52.996;9.124;2024-03-29T11:52:39;2.80;;;0.98;;
25980;SDS011;13772;52.996;9.124;2024-03-29T11:55:04;1.85;;;1.15;;
25980;SDS011;13772;52.996;9.124;2024-03-29T11:57:29;1.42;;;0.80;;
25980;SDS011;13772;52.996;9.124;2024-03-29T11:59:56;1.63;;;0.70;;
25980;SDS011;13772;52.996;9.124;2024-03-29T12:02:21;1.73;;;0.80;;
25980;SDS011;13772;52.996;9.124;2024-03-29T12:04:46;1.23;;;0.63;;
25980;SDS011;13772;52.996;9.124;2024-03-29T12:07:11;2.40;;;0.80;;
25980;SDS011;13772;52.996;9.124;2024-03-29T12:09:37;2.08;;;0.90;;
25980;SDS011;13772;52.996;9.124;2024-03-29T12:12:06;1.75;;;1.00;;
25980;SDS011;13772;52.996;9.124;2024-03-29T12:14:34;1.60;;;0.75;;
25980;SDS011;13772;52.996;9.124;2024-03-29T12:17:02;3.83;;;1.08;;
25980;SDS011;13772;52.996;9.124;2024-03-29T12:19:33;1.80;;;0.80;;
25980;SDS011;13772;52.996;9.124;2024-03-29T12:22:01;2.90;;;1.02;;
25980;SDS011;13772;52.996;9.124;2024-03-29T12:24:27;2.25;;;1.10;;
25980;SDS011;13772;52.996;9.124;2024-03-29T12:26:52;1.30;;;0.80;;
25980;SDS011;13772;52.996;9.124;2024-03-29T12:29:18;1.70;;;0.85;;
25980;SDS011;13772;52.996;9.124;2024-03-29T12:31:43;1.83;;;0.80;;
25980;SDS011;13772;52.996;9.124;2024-03-29T12:34:08;2.58;;;0.98;;
25980;SDS011;13772;52.996;9.124;2024-03-29T12:36:33;3.75;;;0.80;;
25980;SDS011;13772;52.996;9.124;2024-03-29T12:38:58;2.08;;;0.95;;
25980;SDS011;13772;52.996;9.124;2024-03-29T12:41:28;1.25;;;0.80;;
25980;SDS011;13772;52.996;9.124;2024-03-29T12:43:53;2.17;;;0.82;;
25980;SDS011;13772;52.996;9.124;2024-03-29T12:46:19;1.30;;;0.80;;
25980;SDS011;13772;52.996;9.124;2024-03-29T12:48:44;2.55;;;0.65;;
25980;SDS011;13772;52.996;9.124;2024-03-29T12:51:09;1.73;;;0.63;;
25980;SDS011;13772;52.996;9.124;2024-03-29T12:53:37;1.92;;;0.50;;
25980;SDS011;13772;52.996;9.124;2024-03-29T12:56:03;1.67;;;0.70;;
25980;SDS011;13772;52.996;9.124;2024-03-29T12:58:28;1.52;;;1.02;;
25980;SDS011;13772;52.996;9.124;2024-03-29T13:00:53;1.52;;;0.90;;
25980;SDS011;13772;52.996;9.124;2024-03-29T13:03:19;1.60;;;0.93;;
25980;SDS011;13772;52.996;9.124;2024-03-29T13:05:44;3.30;;;0.80;;
25980;SDS011;13772;52.996;9.124;2024-03-29T13:08:10;2.80;;;0.93;;
25980;SDS011;13772;52.996;9.124;2024-03-29T13:10:36;1.20;;;0.90;;
25980;SDS011;13772;52.996;9.124;2024-03-29T13:13:02;3.30;;;1.10;;
25980;SDS011;13772;52.996;9.124;2024-03-29T13:15:27;2.53;;;1.23;;
25980;SDS011;13772;52.996;9.124;2024-03-29T13:17:54;3.30;;;0.90;;
25980;SDS011;13772;52.996;9.124;2024-03-29T13:20:19;2.78;;;1.20;;
25980;SDS011;13772;52.996;9.124;2024-03-29T13:22:45;1.13;;;0.70;;
25980;SDS011;13772;52.996;9.124;2024-03-29T13:25:12;1.48;;;0.88;;
25980;SDS011;13772;52.996;9.124;2024-03-29T13:27:38;2.42;;;1.00;;
25980;SDS011;13772;52.996;9.124;2024-03-29T13:30:04;3.40;;;0.80;;
25980;SDS011;13772;52.996;9.124;2024-03-29T13:32:30;1.35;;;0.80;;
25980;SDS011;13772;52.996;9.124;2024-03-29T13:34:57;1.48;;;0.90;;
25980;SDS011;13772;52.996;9.124;2024-03-29T13:37:23;1.40;;;0.93;;
25980;SDS011;13772;52.996;9.124;2024-03-29T13:39:51;4.18;;;1.05;;
25980;SDS011;13772;52.996;9.124;2024-03-29T13:42:17;1.60;;;1.00;;
25980;SDS011;13772;52.996;9.124;2024-03-29T13:44:42;2.55;;;0.82;;
25980;SDS011;13772;52.996;9.124;2024-03-29T13:47:07;1.52;;;0.98;;
25980;SDS011;13772;52.996;9.124;2024-03-29T13:49:32;1.83;;;0.98;;
25980;SDS011;13772;52.996;9.124;2024-03-29T13:51:57;2.45;;;1.20;;
25980;SDS011;13772;52.996;9.124;2024-03-29T13:54:23;1.17;;;1.00;;
25980;SDS011;13772;52.996;9.124;2024-03-29T13:56:49;1.85;;;0.98;;
25980;SDS011;13772;52.996;9.124;2024-03-29T13:59:14;2.28;;;0.95;;
25980;SDS011;13772;52.996;9.124;2024-03-29T14:01:39;1.63;;;0.88;;
25980;SDS011;13772;52.996;9.124;2024-03-29T14:04:04;1.20;;;0.90;;
25980;SDS011;13772;52.996;9.124;2024-03-29T14:06:29;1.73;;;1.00;;
25980;SDS011;13772;52.996;9.124;2024-03-29T14:08:55;1.92;;;1.20;;
25980;SDS011;13772;52.996;9.124;2024-03-29T14:11:20;1.95;;;0.80;;
25980;SDS011;13772;52.996;9.124;2024-03-29T14:13:45;1.05;;;0.70;;
25980;SDS011;13772;52.996;9.124;2024-03-29T14:16:14;1.95;;;0.95;;
25980;SDS011;13772;52.996;9.124;2024-03-29T14:18:39;1.88;;;0.85;;
25980;SDS011;13772;52.996;9.124;2024-03-29T14:21:04;2.20;;;0.75;;
25980;SDS011;13772;52.996;9.124;2024-03-29T14:23:30;1.75;;;0.90;;
25980;SDS011;13772;52.996;9.124;2024-03-29T14:25:55;2.50;;;1.17;;
25980;SDS011;13772;52.996;9.124;2024-03-29T14:28:22;2.70;;;0.80;;
25980;SDS011;13772;52.996;9.124;2024-03-29T14:30:47;4.07;;;1.98;;
25980;SDS011;13772;52.996;9.124;2024-03-29T14:33:12;1.65;;;0.82;;
25980;SDS011;13772;52.996;9.124;2024-03-29T14:35:37;2.50;;;0.93;;
25980;SDS011;13772;52.996;9.124;2024-03-29T14:38:03;3.53;;;1.20;;
25980;SDS011;13772;52.996;9.124;2024-03-29T14:40:28;1.63;;;0.88;;
25980;SDS011;13772;52.996;9.124;2024-03-29T14:42:53;2.17;;;1.00;;
25980;SDS011;13772;52.996;9.124;2024-03-29T14:45:24;2.97;;;0.98;;
25980;SDS011;13772;52.996;9.124;2024-03-29T14:47:49;2.33;;;1.02;;
25980;SDS011;13772;52.996;9.124;2024-03-29T14:50:15;2.03;;;0.90;;
25980;SDS011;13772;52.996;9.124;2024-03-29T14:52:40;2.78;;;1.00;;
25980;SDS011;13772;52.996;9.124;2024-03-29T14:55:05;2.22;;;1.05;;
25980;SDS011;13772;52.996;9.124;2024-03-29T14:57:30;1.30;;;0.80;;
25980;SDS011;13772;52.996;9.124;2024-03-29T14:59:56;2.33;;;0.80;;
25980;SDS011;13772;52.996;9.124;2024-03-29T15:02:21;3.75;;;1.40;;
25980;SDS011;13772;52.996;9.124;2024-03-29T15:04:47;1.50;;;0.90;;
25980;SDS011;13772;52.996;9.124;2024-03-29T15:07:12;1.63;;;0.95;;
25980;SDS011;13772;52.996;9.124;2024-03-29T15:09:37;1.52;;;0.90;;
25980;SDS011;13772;52.996;9.124;2024-03-29T15:12:02;1.80;;;1.00;;
25980;SDS011;13772;52.996;9.124;2024-03-29T15:14:28;2.30;;;1.20;;
25980;SDS011;13772;52.996;9.124;2024-03-29T15:16:54;1.20;;;0.90;;
25980;SDS011;13772;52.996;9.124;2024-03-29T15:19:20;2.13;;;1.15;;
25980;SDS011;13772;52.996;9.124;2024-03-29T15:21:45;2.55;;;1.13;;
25980;SDS011;13772;52.996;9.124;2024-03-29T15:24:10;2.45;;;1.25;;
25980;SDS011;13772;52.996;9.124;2024-03-29T15:26:35;2.13;;;1.05;;
25980;SDS011;13772;52.996;9.124;2024-03-29T15:29:04;2.35;;;1.50;;
25980;SDS011;13772;52.996;9.124;2024-03-29T15:31:38;1.63;;;1.25;;
25980;SDS011;13772;52.996;9.124;2024-03-29T15:34:04;1.65;;;1.20;;
25980;SDS011;13772;52.996;9.124;2024-03-29T15:36:30;2.47;;;1.40;;
25980;SDS011;13772;52.996;9.124;2024-03-29T15:38:55;3.03;;;1.20;;
25980;SDS011;13772;52.996;9.124;2024-03-29T15:41:25;2.35;;;1.30;;
25980;SDS011;13772;52.996;9.124;2024-03-29T15:43:52;2.67;;;1.23;;
25980;SDS011;13772;52.996;9.124;2024-03-29T15:46:19;2.85;;;1.45;;
25980;SDS011;13772;52.996;9.124;2024-03-29T15:48:45;3.47;;;1.35;;
25980;SDS011;13772;52.996;9.124;2024-03-29T15:51:10;2.20;;;1.40;;
25980;SDS011;13772;52.996;9.124;2024-03-29T15:53:38;2.53;;;1.23;;
25980;SDS011;13772;52.996;9.124;2024-03-29T15:56:06;1.95;;;1.10;;
25980;SDS011;13772;52.996;9.124;2024-03-29T15:58:32;2.17;;;1.20;;
25980;SDS011;13772;52.996;9.124;2024-03-29T16:00:57;3.38;;;1.40;;
25980;SDS011;13772;52.996;9.124;2024-03-29T16:03:22;2.00;;;1.17;;
25980;SDS011;13772;52.996;9.124;2024-03-29T16:05:48;1.80;;;1.10;;
25980;SDS011;13772;52.996;9.124;2024-03-29T16:08:13;3.80;;;1.13;;
25980;SDS011;13772;52.996;9.124;2024-03-29T16:10:50;1.92;;;1.20;;
25980;SDS011;13772;52.996;9.124;2024-03-29T16:13:19;3.10;;;1.30;;
25980;SDS011;13772;52.996;9.124;2024-03-29T16:15:44;2.47;;;1.23;;
25980;SDS011;13772;52.996;9.124;2024-03-29T16:18:10;2.22;;;1.10;;
25980;SDS011;13772;52.996;9.124;2024-03-29T16:20:35;1.95;;;1.20;;
25980;SDS011;13772;52.996;9.124;2024-03-29T16:23:00;2.83;;;1.23;;
25980;SDS011;13772;52.996;9.124;2024-03-29T16:25:25;2.60;;;1.20;;
25980;SDS011;13772;52.996;9.124;2024-03-29T16:27:50;3.72;;;1.45;;
25980;SDS011;13772;52.996;9.124;2024-03-29T16:30:16;4.20;;;1.23;;
25980;SDS011;13772;52.996;9.124;2024-03-29T16:32:42;3.35;;;1.20;;
25980;SDS011;13772;52.996;9.124;2024-03-29T16:35:08;2.90;;;1.20;;
25980;SDS011;13772;52.996;9.124;2024-03-29T16:37:33;4.65;;;1.38;;
25980;SDS011;13772;52.996;9.124;2024-03-29T16:39:58;2.72;;;1.35;;
25980;SDS011;13772;52.996;9.124;2024-03-29T16:42:23;2.58;;;1.27;;
25980;SDS011;13772;52.996;9.124;2024-03-29T16:44:48;3.75;;;1.75;;
25980;SDS011;13772;52.996;9.124;2024-03-29T16:47:14;2.80;;;1.35;;
25980;SDS011;13772;52.996;9.124;2024-03-29T16:49:39;3.33;;;1.40;;
25980;SDS011;13772;52.996;9.124;2024-03-29T16:52:04;2.97;;;1.20;;
25980;SDS011;13772;52.996;9.124;2024-03-29T16:54:29;2.47;;;1.23;;
25980;SDS011;13772;52.996;9.124;2024-03-29T16:56:54;4.57;;;1.42;;
25980;SDS011;13772;52.996;9.124;2024-03-29T16:59:20;2.45;;;1.30;;
25980;SDS011;13772;52.996;9.124;2024-03-29T17:01:45;4.20;;;1.50;;
25980;SDS011;13772;52.996;9.124;2024-03-29T17:04:10;2.97;;;1.48;;
25980;SDS011;13772;52.996;9.124;2024-03-29T17:06:35;3.03;;;1.60;;
25980;SDS011;13772;52.996;9.124;2024-03-29T17:09:01;3.78;;;1.35;;
25980;SDS011;13772;52.996;9.124;2024-03-29T17:11:27;3.28;;;1.30;;
25980;SDS011;13772;52.996;9.124;2024-03-29T17:13:52;3.67;;;1.30;;
25980;SDS011;13772;52.996;9.124;2024-03-29T17:16:17;3.38;;;1.50;;
25980;SDS011;13772;52.996;9.124;2024-03-29T17:18:43;3.33;;;1.42;;
25980;SDS011;13772;52.996;9.124;2024-03-29T17:21:08;2.88;;;1.88;;
25980;SDS011;13772;52.996;9.124;2024-03-29T17:23:33;3.22;;;1.85;;
25980;SDS011;13772;52.996;9.124;2024-03-29T17:25:58;3.40;;;1.75;;
25980;SDS011;13772;52.996;9.124;2024-03-29T17:28:23;3.63;;;1.83;;
25980;SDS011;13772;52.996;9.124;2024-03-29T17:30:49;5.05;;;1.90;;
25980;SDS011;13772;52.996;9.124;2024-03-29T17:33:14;4.00;;;2.03;;
25980;SDS011;13772;52.996;9.124;2024-03-29T17:35:39;5.22;;;1.80;;
25980;SDS011;13772;52.996;9.124;2024-03-29T17:38:04;3.28;;;1.67;;
25980;SDS011;13772;52.996;9.124;2024-03-29T17:40:29;2.55;;;1.70;;
25980;SDS011;13772;52.996;9.124;2024-03-29T17:42:55;4.75;;;1.88;;
25980;SDS011;13772;52.996;9.124;2024-03-29T17:45:21;3.78;;;1.70;;
25980;SDS011;13772;52.996;9.124;2024-03-29T17:47:46;3.88;;;1.73;;
25980;SDS011;13772;52.996;9.124;2024-03-29T17:50:11;3.88;;;1.70;;
25980;SDS011;13772;52.996;9.124;2024-03-29T17:52:37;4.47;;;1.65;;
25980;SDS011;13772;52.996;9.124;2024-03-29T17:55:03;4.32;;;2.28;;
25980;SDS011;13772;52.996;9.124;2024-03-29T17:57:28;5.60;;;2.45;;
25980;SDS011;13772;52.996;9.124;2024-03-29T17:59:53;5.40;;;2.70;;
25980;SDS011;13772;52.996;9.124;2024-03-29T18:02:18;5.78;;;2.97;;
25980;SDS011;13772;52.996;9.124;2024-03-29T18:04:43;5.38;;;2.90;;
25980;SDS011;13772;52.996;9.124;2024-03-29T18:07:09;9.48;;;5.18;;
25980;SDS011;13772;52.996;9.124;2024-03-29T18:09:34;5.30;;;2.78;;
25980;SDS011;13772;52.996;9.124;2024-03-29T18:11:59;3.72;;;2.60;;
25980;SDS011;13772;52.996;9.124;2024-03-29T18:14:24;4.60;;;2.47;;
25980;SDS011;13772;52.996;9.124;2024-03-29T18:16:49;3.22;;;2.22;;
25980;SDS011;13772;52.996;9.124;2024-03-29T18:19:15;3.92;;;2.15;;
25980;SDS011;13772;52.996;9.124;2024-03-29T18:21:40;4.03;;;2.42;;
25980;SDS011;13772;52.996;9.124;2024-03-29T18:24:08;4.22;;;2.88;;
25980;SDS011;13772;52.996;9.124;2024-03-29T18:26:33;5.03;;;2.42;;
25980;SDS011;13772;52.996;9.124;2024-03-29T18:28:59;13.23;;;8.35;;
25980;SDS011;13772;52.996;9.124;2024-03-29T18:31:24;6.00;;;3.28;;
25980;SDS011;13772;52.996;9.124;2024-03-29T18:33:49;6.50;;;3.45;;
25980;SDS011;13772;52.996;9.124;2024-03-29T18:36:14;4.47;;;2.15;;
25980;SDS011;13772;52.996;9.124;2024-03-29T18:38:39;3.58;;;2.25;;
25980;SDS011;13772;52.996;9.124;2024-03-29T18:41:08;4.10;;;2.28;;
25980;SDS011;13772;52.996;9.124;2024-03-29T18:43:33;4.95;;;2.80;;
25980;SDS011;13772;52.996;9.124;2024-03-29T18:46:05;4.10;;;2.63;;
25980;SDS011;13772;52.996;9.124;2024-03-29T18:48:30;3.45;;;2.40;;
25980;SDS011;13772;52.996;9.124;2024-03-29T18:50:55;4.07;;;2.53;;
25980;SDS011;13772;52.996;9.124;2024-03-29T18:53:21;5.15;;;2.85;;
25980;SDS011;13772;52.996;9.124;2024-03-29T18:55:57;6.20;;;4.07;;
25980;SDS011;13772;52.996;9.124;2024-03-29T18:58:22;5.80;;;4.65;;
25980;SDS011;13772;52.996;9.124;2024-03-29T19:00:47;4.00;;;2.90;;
25980;SDS011;13772;52.996;9.124;2024-03-29T19:03:13;3.97;;;2.72;;
25980;SDS011;13772;52.996;9.124;2024-03-29T19:05:38;3.17;;;2.22;;
25980;SDS011;13772;52.996;9.124;2024-03-29T19:08:04;3.05;;;2.53;;
25980;SDS011;13772;52.996;9.124;2024-03-29T19:10:29;5.22;;;2.55;;
25980;SDS011;13772;52.996;9.124;2024-03-29T19:12:54;4.80;;;2.70;;
25980;SDS011;13772;52.996;9.124;2024-03-29T19:15:21;4.15;;;2.50;;
25980;SDS011;13772;52.996;9.124;2024-03-29T19:17:46;4.63;;;2.40;;
25980;SDS011;13772;52.996;9.124;2024-03-29T19:20:12;2.60;;;2.05;;
25980;SDS011;13772;52.996;9.124;2024-03-29T19:22:37;3.33;;;2.08;;
25980;SDS011;13772;52.996;9.124;2024-03-29T19:25:02;4.40;;;1.80;;
25980;SDS011;13772;52.996;9.124;2024-03-29T19:27:28;3.80;;;2.08;;
25980;SDS011;13772;52.996;9.124;2024-03-29T19:29:53;4.10;;;2.08;;
25980;SDS011;13772;52.996;9.124;2024-03-29T19:32:19;4.22;;;2.10;;
25980;SDS011;13772;52.996;9.124;2024-03-29T19:34:45;3.38;;;2.20;;
25980;SDS011;13772;52.996;9.124;2024-03-29T19:37:10;7.00;;;4.38;;
25980;SDS011;13772;52.996;9.124;2024-03-29T19:39:35;9.02;;;5.78;;
25980;SDS011;13772;52.996;9.124;2024-03-29T19:42:00;9.32;;;4.95;;
25980;SDS011;13772;52.996;9.124;2024-03-29T19:44:26;7.43;;;4.32;;
25980;SDS011;13772;52.996;9.124;2024-03-29T19:46:51;7.53;;;5.00;;
25980;SDS011;13772;52.996;9.124;2024-03-29T19:49:16;4.70;;;3.58;;
25980;SDS011;13772;52.996;9.124;2024-03-29T19:51:48;4.65;;;3.35;;
25980;SDS011;13772;52.996;9.124;2024-03-29T19:54:13;6.60;;;3.60;;
25980;SDS011;13772;52.996;9.124;2024-03-29T19:56:38;7.63;;;3.15;;
25980;SDS011;13772;52.996;9.124;2024-03-29T19:59:04;4.00;;;3.17;;
25980;SDS011;13772;52.996;9.124;2024-03-29T20:01:29;4.70;;;3.20;;
25980;SDS011;13772;52.996;9.124;2024-03-29T20:03:54;5.97;;;3.03;;
25980;SDS011;13772;52.996;9.124;2024-03-29T20:06:19;6.75;;;2.78;;
25980;SDS011;13772;52.996;9.124;2024-03-29T20:08:45;4.72;;;3.40;;
25980;SDS011;13772;52.996;9.124;2024-03-29T20:11:13;6.18;;;3.25;;
25980;SDS011;13772;52.996;9.124;2024-03-29T20:13:39;7.97;;;3.27;;
25980;SDS011;13772;52.996;9.124;2024-03-29T20:16:05;5.35;;;3.13;;
25980;SDS011;13772;52.996;9.124;2024-03-29T20:18:32;7.28;;;3.00;;
25980;SDS011;13772;52.996;9.124;2024-03-29T20:20:57;3.83;;;3.25;;
25980;SDS011;13772;52.996;9.124;2024-03-29T20:23:22;5.80;;;3.25;;
25980;SDS011;13772;52.996;9.124;2024-03-29T20:25:48;4.90;;;3.45;;
25980;SDS011;13772;52.996;9.124;2024-03-29T20:28:13;7.22;;;4.28;;
25980;SDS011;13772;52.996;9.124;2024-03-29T20:30:38;7.50;;;3.90;;
25980;SDS011;13772;52.996;9.124;2024-03-29T20:33:04;6.70;;;3.90;;
25980;SDS011;13772;52.996;9.124;2024-03-29T20:35:29;7.40;;;3.90;;
25980;SDS011;13772;52.996;9.124;2024-03-29T20:37:55;5.40;;;3.83;;
25980;SDS011;13772;52.996;9.124;2024-03-29T20:40:20;5.55;;;4.03;;
25980;SDS011;13772;52.996;9.124;2024-03-29T20:42:46;5.88;;;4.10;;
25980;SDS011;13772;52.996;9.124;2024-03-29T20:45:11;6.78;;;4.07;;
25980;SDS011;13772;52.996;9.124;2024-03-29T20:47:36;6.70;;;4.00;;
25980;SDS011;13772;52.996;9.124;2024-03-29T20:50:02;5.95;;;3.80;;
25980;SDS011;13772;52.996;9.124;2024-03-29T20:52:28;6.70;;;3.92;;
25980;SDS011;13772;52.996;9.124;2024-03-29T20:54:54;4.97;;;3.72;;
25980;SDS011;13772;52.996;9.124;2024-03-29T20:57:23;6.18;;;3.92;;
25980;SDS011;13772;52.996;9.124;2024-03-29T20:59:48;5.68;;;3.45;;
25980;SDS011;13772;52.996;9.124;2024-03-29T21:02:13;5.68;;;3.72;;
25980;SDS011;13772;52.996;9.124;2024-03-29T21:04:58;6.43;;;3.45;;
25980;SDS011;13772;52.996;9.124;2024-03-29T21:07:41;4.93;;;3.45;;
25980;SDS011;13772;52.996;9.124;2024-03-29T21:10:08;4.80;;;3.25;;
25980;SDS011;13772;52.996;9.124;2024-03-29T21:12:33;4.55;;;3.42;;
25980;SDS011;13772;52.996;9.124;2024-03-29T21:14:58;7.45;;;3.42;;
25980;SDS011;13772;52.996;9.124;2024-03-29T21:17:24;4.72;;;2.85;;
25980;SDS011;13772;52.996;9.124;2024-03-29T21:19:49;3.90;;;3.00;;
25980;SDS011;13772;52.996;9.124;2024-03-29T21:22:15;5.20;;;3.17;;
25980;SDS011;13772;52.996;9.124;2024-03-29T21:24:40;7.28;;;2.92;;
25980;SDS011;13772;52.996;9.124;2024-03-29T21:27:05;3.97;;;3.17;;
25980;SDS011;13772;52.996;9.124;2024-03-29T21:29:30;4.88;;;3.15;;
25980;SDS011;13772;52.996;9.124;2024-03-29T21:31:55;3.88;;;2.80;;
25980;SDS011;13772;52.996;9.124;2024-03-29T21:34:21;4.00;;;2.78;;
25980;SDS011;13772;52.996;9.124;2024-03-29T21:36:46;4.32;;;3.13;;
25980;SDS011;13772;52.996;9.124;2024-03-29T21:39:11;5.85;;;2.92;;
25980;SDS011;13772;52.996;9.124;2024-03-29T21:41:36;6.25;;;3.08;;
25980;SDS011;13772;52.996;9.124;2024-03-29T21:44:01;4.57;;;2.78;;
25980;SDS011;13772;52.996;9.124;2024-03-29T21:46:27;3.67;;;2.80;;
25980;SDS011;13772;52.996;9.124;2024-03-29T21:48:52;5.32;;;2.63;;
25980;SDS011;13772;52.996;9.124;2024-03-29T21:51:17;5.90;;;3.00;;
25980;SDS011;13772;52.996;9.124;2024-03-29T21:53:42;5.03;;;2.70;;
25980;SDS011;13772;52.996;9.124;2024-03-29T21:56:07;3.38;;;2.30;;
25980;SDS011;13772;52.996;9.124;2024-03-29T21:58:33;5.20;;;2.50;;
25980;SDS011;13772;52.996;9.124;2024-03-29T22:00:58;5.22;;;2.45;;
25980;SDS011;13772;52.996;9.124;2024-03-29T22:03:23;4.18;;;2.70;;
25980;SDS011;13772;52.996;9.124;2024-03-29T22:05:48;6.53;;;2.53;;
25980;SDS011;13772;52.996;9.124;2024-03-29T22:08:13;4.45;;;2.20;;
25980;SDS011;13772;52.996;9.124;2024-03-29T22:10:39;4.53;;;2.40;;
25980;SDS011;13772;52.996;9.124;2024-03-29T22:13:05;4.78;;;2.33;;
25980;SDS011;13772;52.996;9.124;2024-03-29T22:15:31;2.80;;;1.77;;
25980;SDS011;13772;52.996;9.124;2024-03-29T22:17:56;6.60;;;2.47;;
25980;SDS011;13772;52.996;9.124;2024-03-29T22:20:21;3.28;;;2.45;;
25980;SDS011;13772;52.996;9.124;2024-03-29T22:22:46;3.25;;;2.20;;
25980;SDS011;13772;52.996;9.124;2024-03-29T22:25:13;4.10;;;2.63;;
25980;SDS011;13772;52.996;9.124;2024-03-29T22:27:40;4.60;;;2.67;;
25980;SDS011;13772;52.996;9.124;2024-03-29T22:30:06;3.75;;;2.60;;
25980;SDS011;13772;52.996;9.124;2024-03-29T22:32:31;5.07;;;2.75;;
25980;SDS011;13772;52.996;9.124;2024-03-29T22:34:56;3.92;;;2.75;;
25980;SDS011;13772;52.996;9.124;2024-03-29T22:37:22;2.80;;;2.42;;
25980;SDS011;13772;52.996;9.124;2024-03-29T22:39:47;5.88;;;3.20;;
25980;SDS011;13772;52.996;9.124;2024-03-29T22:42:13;5.45;;;3.40;;
25980;SDS011;13772;52.996;9.124;2024-03-29T22:44:38;5.18;;;3.80;;
25980;SDS011;13772;52.996;9.124;2024-03-29T22:47:04;5.07;;;4.22;;
25980;SDS011;13772;52.996;9.124;2024-03-29T22:49:29;5.22;;;4.10;;
25980;SDS011;13772;52.996;9.124;2024-03-29T22:51:54;4.03;;;3.63;;
25980;SDS011;13772;52.996;9.124;2024-03-29T22:54:19;5.15;;;3.70;;
25980;SDS011;13772;52.996;9.124;2024-03-29T22:56:46;3.83;;;3.45;;
